Time;durP1;ratioP1;P1;durP2;ratioP2;P2;SDS_P1;SDS_P2;PMS_P1;PMS_P2;Temp;Humidity;BMP_temperature;BMP_pressure;BME280_temperature;BME280_humidity;BME280_pressure;Samples;Min_cycle;Max_cycle;Signal;HPM_P1;HPM_P2
2021/10/25 00:01:43;;;;;;;6.13;3.17;;;;;;;6.49;54.53;101626.53;7974594;28;20026;-66
2021/10/25 00:05:36;;;;;;;3.78;2.65;;;;;;;6.47;54.87;101630.13;7973687;28;20036;-66
2021/10/25 00:09:27;;;;;;;4.72;3.22;;;;;;;6.44;54.44;101618.00;7973819;28;20112;-66
2021/10/25 00:13:18;;;;;;;6.55;3.22;;;;;;;6.42;54.34;101616.38;7977342;28;20033;-66
2021/10/25 00:17:09;;;;;;;6.63;3.08;;;;;;;6.39;54.81;101611.25;7973932;28;20068;-66
2021/10/25 00:20:59;;;;;;;6.90;2.97;;;;;;;6.34;54.75;101606.22;7972097;28;20041;-66
2021/10/25 00:24:50;;;;;;;7.43;2.85;;;;;;;6.32;54.79;101609.78;7973360;28;20038;-66
2021/10/25 00:28:40;;;;;;;4.15;2.70;;;;;;;6.27;54.68;101602.13;7972282;28;20037;-66
2021/10/25 00:32:33;;;;;;;5.93;2.95;;;;;;;6.25;54.71;101597.88;7972618;28;20052;-66
2021/10/25 00:36:24;;;;;;;4.38;2.88;;;;;;;6.21;54.49;101598.91;7972903;28;20033;-66
2021/10/25 00:40:14;;;;;;;9.02;2.70;;;;;;;6.17;54.42;101599.91;7972195;28;20026;-66
2021/10/25 00:44:05;;;;;;;4.82;3.00;;;;;;;6.15;54.34;101596.50;7971017;28;20037;-66
2021/10/25 00:47:57;;;;;;;4.45;2.75;;;;;;;6.12;54.50;101602.69;7971957;28;20513;-66
2021/10/25 00:51:48;;;;;;;6.90;3.10;;;;;;;6.08;54.84;101598.50;7973284;28;20894;-66
2021/10/25 00:55:40;;;;;;;5.13;2.75;;;;;;;6.05;54.49;101596.00;7971488;28;20033;-66
2021/10/25 00:59:32;;;;;;;5.85;3.10;;;;;;;6.01;54.43;101592.66;7971547;28;20044;-66
2021/10/25 01:03:23;;;;;;;4.60;2.38;;;;;;;5.99;54.71;101593.59;7970556;28;20029;-66
2021/10/25 01:07:13;;;;;;;5.85;2.25;;;;;;;5.95;54.73;101586.78;7970403;28;20037;-66
2021/10/25 01:11:06;;;;;;;4.85;2.17;;;;;;;5.89;54.57;101584.41;7970950;28;20044;-66
2021/10/25 01:14:56;;;;;;;4.63;2.65;;;;;;;5.89;54.75;101595.66;7971886;28;20037;-66
2021/10/25 01:18:49;;;;;;;4.28;2.70;;;;;;;5.86;54.34;101587.09;7971538;28;20098;-66
2021/10/25 01:22:40;;;;;;;3.78;2.42;;;;;;;5.83;54.76;101590.69;7971698;28;20440;-66
2021/10/25 01:26:31;;;;;;;6.32;2.78;;;;;;;5.76;54.59;101583.13;7970344;28;20041;-66
2021/10/25 01:30:22;;;;;;;3.47;2.42;;;;;;;5.77;54.88;101593.47;7969840;28;20056;-66
2021/10/25 01:34:13;;;;;;;4.45;2.58;;;;;;;5.75;54.49;101592.69;7969728;28;20048;-66
2021/10/25 01:38:04;;;;;;;4.90;2.83;;;;;;;5.73;54.67;101588.44;7970038;28;20043;-66
2021/10/25 01:41:55;;;;;;;3.65;2.42;;;;;;;5.70;54.68;101580.72;7970002;28;20029;-66
2021/10/25 01:45:46;;;;;;;3.63;2.50;;;;;;;5.59;54.71;101571.53;7969298;28;20039;-66
2021/10/25 01:49:37;;;;;;;3.30;2.40;;;;;;;5.63;54.47;101585.31;7969634;28;20037;-66
2021/10/25 01:53:28;;;;;;;7.90;2.60;;;;;;;5.58;54.43;101577.63;7968743;28;20042;-66
2021/10/25 01:57:20;;;;;;;3.78;2.20;;;;;;;5.55;54.86;101567.31;7968831;28;20044;-66
2021/10/25 02:01:17;;;;;;;3.38;2.42;;;;;;;5.53;54.56;101571.72;7968904;28;20033;-66
2021/10/25 02:05:08;;;;;;;4.33;2.57;;;;;;;5.43;54.78;101561.69;7969020;28;20065;-66
2021/10/25 02:08:59;;;;;;;3.53;2.03;;;;;;;5.46;54.87;101561.56;7969401;28;20033;-66
2021/10/25 02:12:50;;;;;;;4.63;2.80;;;;;;;5.41;54.58;101551.28;7970186;28;20083;-66
2021/10/25 02:16:41;;;;;;;4.35;2.50;;;;;;;5.39;54.44;101553.13;7968974;28;20037;-65
2021/10/25 02:20:32;;;;;;;2.33;1.98;;;;;;;5.35;54.48;101548.06;7968863;28;20045;-66
2021/10/25 02:24:23;;;;;;;3.83;2.13;;;;;;;5.31;54.43;101544.69;7968410;28;20041;-66
2021/10/25 02:28:13;;;;;;;3.42;2.22;;;;;;;5.28;54.43;101541.31;7968201;28;20045;-66
2021/10/25 02:32:08;;;;;;;5.65;2.30;;;;;;;5.27;54.88;101542.25;7968323;28;20037;-66
2021/10/25 02:35:58;;;;;;;2.88;2.13;;;;;;;5.23;54.65;101532.84;7968551;28;20496;-66
2021/10/25 02:39:51;;;;;;;4.10;2.30;;;;;;;5.19;54.79;101535.53;7967975;28;20034;-66
2021/10/25 02:43:42;;;;;;;5.20;2.70;;;;;;;5.18;54.46;101530.38;7968366;28;20029;-66
2021/10/25 02:47:33;;;;;;;11.07;3.03;;;;;;;5.15;54.90;101528.72;7968250;28;20681;-66
2021/10/25 02:51:30;;;;;;;8.95;3.85;;;;;;;5.13;54.64;101533.09;7967961;28;20127;-66
2021/10/25 02:55:21;;;;;;;9.18;3.35;;;;;;;5.10;54.70;101535.78;7968135;28;20454;-66
2021/10/25 02:59:14;;;;;;;9.30;2.85;;;;;;;5.10;54.73;101533.19;7965732;28;20518;-66
2021/10/25 03:03:06;;;;;;;5.22;2.67;;;;;;;5.05;54.90;101527.28;7968321;28;20037;-66
2021/10/25 03:06:57;;;;;;;4.55;2.10;;;;;;;5.05;54.81;101523.84;7971097;28;20029;-66
2021/10/25 03:10:49;;;;;;;3.58;2.08;;;;;;;5.03;54.92;101529.09;7974521;28;20080;-66
2021/10/25 03:14:40;;;;;;;5.03;2.35;;;;;;;5.01;54.64;101524.84;7977515;28;20029;-67
2021/10/25 03:18:31;;;;;;;3.55;2.30;;;;;;;4.99;54.71;101526.63;7974146;28;20087;-66
2021/10/25 03:22:21;;;;;;;5.05;2.30;;;;;;;4.95;54.82;101517.22;7975064;28;20040;-66
2021/10/25 03:26:14;;;;;;;3.58;2.25;;;;;;;4.93;54.46;101524.25;7974250;28;20099;-65
2021/10/25 03:30:05;;;;;;;5.55;2.00;;;;;;;4.86;54.49;101514.91;7974911;28;20136;-66
2021/10/25 03:33:56;;;;;;;3.03;2.15;;;;;;;4.88;54.54;101513.97;7968993;28;20106;-65
2021/10/25 03:37:55;;;;;;;;;;;;;;;4.76;54.45;101500.50;7974627;28;20033;-65
2021/10/25 03:41:48;;;;;;;3.75;1.80;;;;;;;4.69;54.64;101492.88;7973855;28;19921;-65
2021/10/25 03:45:47;;;;;;;3.58;2.17;;;;;;;4.74;54.88;101503.13;7972723;28;20037;-65
2021/10/25 03:50:06;;;;;;;4.47;1.90;;;;;;;4.73;54.60;101502.28;7969837;28;20041;-66
2021/10/25 04:31:05;;;;;;;4.40;2.22;;;;;;;4.63;55.29;101487.00;7949140;28;20140;-66
2021/10/25 04:35:05;;;;;;;5.28;2.40;;;;;;;4.63;55.32;101484.41;7972658;28;20496;-66
2021/10/25 04:39:15;;;;;;;3.00;2.17;;;;;;;4.61;55.14;101486.19;7974066;28;20402;-66
2021/10/25 04:43:06;;;;;;;5.13;2.13;;;;;;;4.62;55.63;101480.97;7973410;28;20025;-65
2021/10/25 04:46:56;;;;;;;2.88;2.25;;;;;;;4.63;55.42;101484.41;7971361;28;20474;-65
2021/10/25 04:50:47;;;;;;;3.78;1.80;;;;;;;4.64;55.79;101479.16;7971674;28;20699;-66
2021/10/25 04:54:58;;;;;;;2.38;1.75;;;;;;;4.62;55.75;101474.91;7972326;28;20529;-66
2021/10/25 04:58:49;;;;;;;7.90;2.35;;;;;;;4.66;55.78;101484.31;7972825;28;20116;-66
2021/10/25 05:02:39;;;;;;;3.67;2.20;;;;;;;4.70;55.93;101489.38;7971161;28;20029;-65
2021/10/25 05:06:30;;;;;;;4.35;2.38;;;;;;;4.72;55.81;101490.19;7970707;28;20036;-65
2021/10/25 05:10:21;;;;;;;2.72;1.98;;;;;;;4.73;55.75;101484.06;7970815;28;20026;-65
2021/10/25 05:14:11;;;;;;;5.28;2.05;;;;;;;4.76;56.05;101488.34;7972586;28;20025;-65
2021/10/25 05:18:04;;;;;;;3.80;2.28;;;;;;;4.77;55.96;101486.59;7970796;28;20375;-65
2021/10/25 05:21:55;;;;;;;3.58;2.20;;;;;;;4.77;55.81;101483.97;7972718;28;20455;-66
2021/10/25 05:25:49;;;;;;;5.57;2.10;;;;;;;4.76;56.17;101477.91;7970517;28;20037;-65
2021/10/25 05:29:41;;;;;;;7.85;2.33;;;;;;;4.74;55.92;101483.16;7969477;28;20025;-65
2021/10/25 05:33:33;;;;;;;6.55;2.30;;;;;;;4.73;55.64;101485.84;7970165;28;20040;-65
2021/10/25 05:37:24;;;;;;;6.47;2.13;;;;;;;4.72;55.97;101490.19;7969959;28;20409;-65
2021/10/25 05:41:15;;;;;;;3.42;2.28;;;;;;;4.71;55.89;101487.63;7970845;28;20855;-65
2021/10/25 05:45:06;;;;;;;5.47;2.45;;;;;;;4.69;55.94;101485.06;7970130;28;20546;-65
2021/10/25 05:48:58;;;;;;;4.25;2.40;;;;;;;4.69;56.09;101484.19;7969639;28;20734;-65
2021/10/25 05:52:48;;;;;;;4.95;1.98;;;;;;;4.68;56.24;101479.91;7969202;28;20026;-65
2021/10/25 05:56:43;;;;;;;4.68;2.22;;;;;;;4.69;55.97;101481.59;7969301;28;20037;-65
2021/10/25 06:00:38;;;;;;;3.92;2.10;;;;;;;4.61;55.88;101467.97;7969688;28;20083;-64
2021/10/25 06:04:31;;;;;;;3.17;2.00;;;;;;;4.68;55.96;101482.53;7969150;28;20114;-64
2021/10/25 06:08:49;;;;;;;5.53;2.33;;;;;;;4.65;56.30;101477.41;7955473;28;20102;-65
2021/10/25 06:12:42;;;;;;;3.72;1.88;;;;;;;4.65;56.12;101482.59;7966978;28;20033;-65
2021/10/25 06:16:42;;;;;;;5.13;2.60;;;;;;;4.65;55.98;101480.00;7967408;28;20375;-65
2021/10/25 06:20:37;;;;;;;4.60;2.30;;;;;;;4.65;56.39;101486.06;7963650;28;20059;-65
2021/10/25 06:24:29;;;;;;;8.60;2.10;;;;;;;4.65;56.09;101474.78;7968056;28;20095;-65
2021/10/25 06:28:32;;;;;;;3.38;1.98;;;;;;;4.65;56.15;101469.59;7962090;28;20048;-65
2021/10/25 06:32:25;;;;;;;2.80;1.65;;;;;;;4.65;56.27;101472.19;7968057;28;20029;-65
2021/10/25 06:36:19;;;;;;;5.18;2.40;;;;;;;4.65;56.44;101474.78;7966002;28;20100;-65
2021/10/25 06:40:35;;;;;;;;;;;;;;;4.56;56.03;101475.09;7967772;28;20045;-64
2021/10/25 06:44:26;;;;;;;1.98;1.63;;;;;;;4.59;56.24;101472.41;7967633;28;19927;-65
2021/10/25 06:48:37;;;;;;;4.15;2.03;;;;;;;4.51;56.09;101462.25;7951988;28;20032;-65
2021/10/25 06:52:27;;;;;;;3.30;2.00;;;;;;;4.61;56.25;101475.78;7963470;28;20037;-65
2021/10/25 06:56:18;;;;;;;2.63;2.05;;;;;;;4.62;56.26;101473.16;7961207;28;20083;-65
2021/10/25 07:00:10;;;;;;;5.18;1.90;;;;;;;4.63;56.31;101474.84;7968009;28;20037;-65
2021/10/25 07:04:02;;;;;;;3.75;1.77;;;;;;;4.66;56.20;101484.31;7961461;28;20036;-65
2021/10/25 07:07:59;;;;;;;4.37;2.07;;;;;;;4.66;56.39;101484.31;7964555;28;20072;-63
2021/10/25 07:11:51;;;;;;;6.53;2.17;;;;;;;4.69;56.37;101490.25;7968238;28;20037;-65
2021/10/25 07:15:59;;;;;;;4.05;2.38;;;;;;;4.71;56.40;101485.88;7968001;28;20033;-64
2021/10/25 08:01:51;;;;;;;5.53;2.80;;;;;;;5.33;57.52;101515.97;7960662;28;20034;-66
2021/10/25 08:13:42;;;;;;;4.07;2.67;;;;;;;6.03;57.43;101502.13;7974565;28;20037;-65
2021/10/25 08:17:42;;;;;;;6.55;2.50;;;;;;;6.27;57.15;101502.97;7970790;28;20877;-65
2021/10/25 08:21:33;;;;;;;5.95;2.40;;;;;;;6.46;57.35;101506.59;7969936;28;20510;-65
2021/10/25 08:25:25;;;;;;;6.97;2.05;;;;;;;6.66;57.42;101503.19;7971726;28;20036;-66
2021/10/25 08:29:20;;;;;;;3.47;2.00;;;;;;;6.89;57.56;101499.66;7968801;28;20395;-65
2021/10/25 08:41:21;;;;;;;4.72;2.60;;;;;;;7.70;57.49;101490.09;7970587;28;20033;-64
2021/10/25 08:45:17;;;;;;;4.50;1.90;;;;;;;7.91;57.59;101489.16;7970616;28;20040;-65
2021/10/25 08:49:07;;;;;;;4.90;2.38;;;;;;;8.12;57.60;101483.88;7972435;28;20045;-65
2021/10/25 08:52:59;;;;;;;3.95;1.98;;;;;;;8.32;57.22;101487.28;7970198;28;20063;-64
2021/10/25 08:57:01;;;;;;;8.23;2.75;;;;;;;8.48;57.57;101484.78;7970288;28;20044;-64
2021/10/25 09:00:57;;;;;;;4.67;2.40;;;;;;;8.70;57.34;101501.16;7969975;28;20617;-65
2021/10/25 09:05:04;;;;;;;5.30;2.45;;;;;;;8.83;57.41;101498.81;7968134;28;20090;-65
2021/10/25 09:08:58;;;;;;;;;;;;;;;8.79;57.24;101494.59;7969014;28;20120;-64
2021/10/25 09:12:55;;;;;;;6.50;2.03;;;;;;;8.98;57.01;101494.56;7965784;28;19921;-64
2021/10/25 09:16:46;;;;;;;5.68;2.60;;;;;;;9.05;57.06;101499.41;7970046;28;20029;-64
2021/10/25 09:20:41;;;;;;;5.43;2.70;;;;;;;9.04;57.35;101489.03;7970717;28;20465;-66
2021/10/25 09:24:33;;;;;;;5.95;3.35;;;;;;;9.04;57.06;101482.00;7968167;28;20623;-65
2021/10/25 09:28:35;;;;;;;3.85;2.40;;;;;;;9.09;57.05;101490.47;7969786;28;20036;-64
2021/10/25 09:32:33;;;;;;;4.88;2.50;;;;;;;9.11;57.38;101488.66;7969870;28;20025;-64
2021/10/25 09:36:49;;;;;;;2.92;1.88;;;;;;;9.11;57.36;101486.03;7969040;28;20083;-66
2021/10/25 09:41:12;;;;;;;6.07;2.40;;;;;;;9.12;57.33;101479.84;7969079;28;20029;-66
2021/10/25 09:49:34;;;;;;;3.42;1.85;;;;;;;9.23;57.55;101484.56;7965664;28;20033;-65
2021/10/25 09:53:30;;;;;;;2.53;1.80;;;;;;;9.26;57.52;101466.03;7965685;28;20026;-65
2021/10/25 09:57:27;;;;;;;4.95;1.88;;;;;;;9.37;57.45;101466.34;7967544;28;20025;-65
2021/10/25 10:01:44;;;;;;;2.13;1.30;;;;;;;9.45;57.78;101477.31;7951542;28;20594;-65
2021/10/25 10:05:37;;;;;;;3.42;1.65;;;;;;;9.50;57.58;101459.56;7968337;28;20091;-65
2021/10/25 10:09:31;;;;;;;3.25;1.80;;;;;;;9.64;58.10;101474.56;7964504;28;20037;-65
2021/10/25 10:13:23;;;;;;;2.63;1.67;;;;;;;9.71;57.50;101460.19;7967640;28;20065;-64
2021/10/25 10:17:56;;;;;;;3.20;1.75;;;;;;;9.78;57.47;101469.47;7967812;28;20553;-66
2021/10/25 10:21:48;;;;;;;2.72;1.80;;;;;;;9.86;57.58;101471.66;7966940;28;20034;-65
2021/10/25 10:25:54;;;;;;;4.53;1.80;;;;;;;9.92;57.42;101463.44;7965061;28;20029;-65
2021/10/25 10:29:51;;;;;;;4.55;1.60;;;;;;;10.00;57.58;101458.63;7965245;28;20037;-65
2021/10/25 10:33:58;;;;;;;5.63;2.45;;;;;;;10.09;57.48;101453.75;7966106;28;20414;-66
2021/10/25 10:38:01;;;;;;;4.35;2.15;;;;;;;10.15;57.36;101449.94;7967266;28;20037;-66
2021/10/25 10:41:58;;;;;;;3.38;1.95;;;;;;;10.18;57.38;101453.25;7967261;28;20026;-65
2021/10/25 10:46:09;;;;;;;4.85;3.53;;;;;;;10.20;57.41;101448.72;7968482;28;20484;-65
2021/10/25 10:50:00;;;;;;;4.57;2.92;;;;;;;10.25;57.26;101440.59;7968106;28;20045;-65
2021/10/25 10:54:02;;;;;;;2.78;1.75;;;;;;;10.29;57.41;101436.03;7968418;28;20494;-64
2021/10/25 10:58:12;;;;;;;4.95;2.40;;;;;;;10.41;57.43;101443.22;7966233;28;20037;-64
2021/10/25 11:02:03;;;;;;;5.05;2.70;;;;;;;10.50;57.34;101448.00;7966246;28;20053;-65
2021/10/25 11:06:09;;;;;;;3.60;1.73;;;;;;;10.60;57.34;101438.66;7968060;28;20037;-65
2021/10/25 11:10:00;;;;;;;3.00;1.65;;;;;;;10.68;57.45;101433.81;7965367;28;20112;-64
2021/10/25 11:14:01;;;;;;;3.30;1.75;;;;;;;10.79;57.54;101438.44;7967346;28;20045;-66
2021/10/25 11:18:01;;;;;;;2.10;1.48;;;;;;;10.87;57.33;101436.22;7967287;28;20096;-66
2021/10/25 11:21:53;;;;;;;1.65;1.25;;;;;;;10.95;57.39;101434.81;7969996;28;20390;-65
2021/10/25 11:25:45;;;;;;;4.00;1.40;;;;;;;11.01;57.46;101431.84;7969454;28;20451;-65
2021/10/25 11:29:36;;;;;;;1.42;1.20;;;;;;;11.07;57.58;101420.09;7973977;28;20029;-65
2021/10/25 11:33:28;;;;;;;1.95;1.38;;;;;;;11.15;57.14;101421.34;7971644;28;20040;-66
2021/10/25 11:37:21;;;;;;;1.35;1.25;;;;;;;11.20;57.18;101413.19;7974303;28;20036;-65
2021/10/25 11:41:11;;;;;;;2.42;1.60;;;;;;;11.26;56.98;101412.81;7972357;28;20033;-64
2021/10/25 11:45:14;;;;;;;5.25;1.70;;;;;;;11.30;57.02;101408.22;7974075;28;20029;-65
2021/10/25 11:49:05;;;;;;;2.67;1.35;;;;;;;11.35;57.13;101399.13;7970549;28;20037;-64
2021/10/25 11:52:58;;;;;;;1.45;1.20;;;;;;;11.42;56.96;101399.59;7973064;28;20025;-65
2021/10/25 11:56:55;;;;;;;3.45;1.48;;;;;;;11.37;56.75;101385.84;7968368;28;20498;-64
2021/10/25 12:00:50;;;;;;;2.30;1.30;;;;;;;11.48;57.03;101392.16;7970541;28;20114;-62
2021/10/25 12:04:53;;;;;;;3.17;1.63;;;;;;;11.53;56.73;101390.09;7967663;28;20089;-64
2021/10/25 12:09:01;;;;;;;2.90;1.35;;;;;;;11.55;56.97;101390.84;7971964;28;20033;-64
2021/10/25 12:12:55;;;;;;;2.42;1.05;;;;;;;11.55;56.83;101379.47;7970127;28;20081;-66
2021/10/25 12:16:48;;;;;;;2.78;1.27;;;;;;;11.59;56.79;101375.75;7973374;28;20087;-64
2021/10/25 12:20:40;;;;;;;2.80;1.40;;;;;;;11.69;56.83;101379.47;7971824;28;20047;-63
2021/10/25 12:24:40;;;;;;;4.00;1.45;;;;;;;11.74;56.99;101377.41;7969764;28;20024;-65
2021/10/25 12:28:34;;;;;;;1.23;1.02;;;;;;;11.80;56.71;101373.56;7970679;28;20401;-64
2021/10/25 12:32:25;;;;;;;1.67;1.10;;;;;;;11.83;56.73;101379.47;7967593;28;20113;-65
2021/10/25 12:36:21;;;;;;;3.85;1.63;;;;;;;11.84;56.69;101364.53;7970182;28;20186;-65
2021/10/25 12:40:18;;;;;;;3.58;2.08;;;;;;;11.93;56.50;101363.94;7970265;28;20033;-65
2021/10/25 12:44:09;;;;;;;7.20;2.20;;;;;;;11.99;57.08;101369.66;7971026;28;20522;-65
2021/10/25 12:48:00;;;;;;;2.83;1.45;;;;;;;12.03;56.72;101367.66;7972167;28;20039;-65
2021/10/25 12:51:51;;;;;;;3.78;1.60;;;;;;;12.07;56.58;101358.63;7970208;28;20172;-65
2021/10/25 12:55:44;;;;;;;3.17;1.15;;;;;;;12.05;56.12;101366.63;7970097;28;20069;-65
2021/10/25 12:59:34;;;;;;;1.88;1.27;;;;;;;12.03;56.29;101365.03;7969858;28;20103;-65
2021/10/25 13:03:29;;;;;;;3.03;1.58;;;;;;;12.01;56.23;101365.16;7968855;28;20026;-65
2021/10/25 13:07:20;;;;;;;2.10;0.98;;;;;;;11.98;56.31;101353.94;7969588;28;20029;-64
2021/10/25 13:11:13;;;;;;;2.60;1.20;;;;;;;11.98;56.28;101349.53;7969790;28;20509;-64
2021/10/25 13:15:04;;;;;;;3.03;0.98;;;;;;;11.95;56.01;101357.63;7972595;28;20707;-64
2021/10/25 13:18:55;;;;;;;1.25;1.00;;;;;;;11.96;56.04;101364.59;7974264;28;20038;-64
2021/10/25 13:22:46;;;;;;;2.03;1.05;;;;;;;11.95;56.23;101348.88;7967915;28;20449;-65
2021/10/25 13:26:38;;;;;;;2.72;1.10;;;;;;;11.98;55.87;101354.78;7969241;28;20548;-62
2021/10/25 13:30:29;;;;;;;1.00;0.80;;;;;;;11.98;55.74;101346.03;7967950;28;20025;-65
2021/10/25 13:34:21;;;;;;;1.98;1.10;;;;;;;11.98;55.41;101335.50;7968720;28;20030;-65
2021/10/25 13:38:11;;;;;;;1.25;0.88;;;;;;;11.99;55.50;101340.69;7971886;28;20087;-63
2021/10/25 13:42:02;;;;;;;1.75;1.45;;;;;;;11.95;55.65;101326.03;7966842;28;20083;-62
2021/10/25 13:45:53;;;;;;;3.47;1.58;;;;;;;12.01;55.39;101327.44;7969971;28;20029;-65
2021/10/25 13:49:44;;;;;;;2.75;1.27;;;;;;;12.01;55.52;101328.28;7969124;28;20029;-64
2021/10/25 13:53:35;;;;;;;1.35;1.10;;;;;;;12.03;55.55;101328.16;7967551;28;20033;-65
2021/10/25 13:57:27;;;;;;;3.58;1.00;;;;;;;12.04;55.38;101327.22;7968071;28;20063;-63
2021/10/25 14:01:17;;;;;;;1.95;1.48;;;;;;;12.05;55.51;101324.50;7967521;28;20072;-65
2021/10/25 14:05:17;;;;;;;3.55;1.50;;;;;;;12.01;55.55;101320.38;7968053;28;20063;-65
2021/10/25 14:09:08;;;;;;;3.25;1.55;;;;;;;12.05;55.47;101321.03;7969753;28;20041;-64
2021/10/25 14:13:04;;;;;;;1.60;1.23;;;;;;;12.04;55.61;101317.53;7969306;28;20056;-63
2021/10/25 14:16:55;;;;;;;2.58;1.33;;;;;;;12.04;55.54;101316.69;7969753;28;20040;-65
2021/10/25 14:20:46;;;;;;;5.38;1.30;;;;;;;12.04;55.50;101317.53;7969460;28;20026;-64
2021/10/25 14:24:39;;;;;;;2.15;1.25;;;;;;;11.99;55.42;101308.25;7968459;28;20116;-65
2021/10/25 14:28:30;;;;;;;2.85;1.17;;;;;;;12.06;55.19;101315.63;7969158;28;20021;-65
2021/10/25 14:32:20;;;;;;;3.70;1.10;;;;;;;12.06;55.08;101306.91;7966306;28;20042;-64
2021/10/25 14:36:12;;;;;;;3.78;1.00;;;;;;;12.08;55.10;101307.66;7968741;28;20036;-65
2021/10/25 14:40:10;;;;;;;1.48;0.88;;;;;;;12.08;55.21;101308.50;7969333;28;20503;-64
2021/10/25 14:44:05;;;;;;;1.92;0.90;;;;;;;12.07;55.21;101312.06;7969413;28;20071;-64
2021/10/25 14:56:10;;;;;;;1.77;1.23;;;;;;;12.01;54.79;101306.38;7968467;28;20029;-65
2021/10/25 15:00:00;;;;;;;3.35;1.65;;;;;;;11.97;54.82;101313.63;7968803;28;20029;-65
2021/10/25 15:03:51;;;;;;;1.10;1.00;;;;;;;11.93;54.87;101317.41;7969486;28;20032;-64
2021/10/25 15:07:43;;;;;;;4.25;1.20;;;;;;;11.91;54.98;101319.28;7974777;28;20033;-64
2021/10/25 15:11:33;;;;;;;3.95;1.00;;;;;;;11.87;55.08;101323.03;7974089;28;20040;-64
2021/10/25 15:15:24;;;;;;;2.05;1.20;;;;;;;11.83;55.08;101321.56;7972733;28;20042;-64
2021/10/25 15:19:15;;;;;;;1.90;1.30;;;;;;;11.78;55.40;101331.53;7974892;28;20043;-63
2021/10/25 15:23:06;;;;;;;1.33;1.10;;;;;;;11.73;55.35;101330.97;7974086;28;20029;-64
2021/10/25 15:26:57;;;;;;;1.85;1.00;;;;;;;11.69;55.36;101321.56;7974227;28;20026;-64
2021/10/25 15:30:47;;;;;;;1.58;1.20;;;;;;;11.64;55.55;101317.56;7974497;28;20032;-64
2021/10/25 15:34:41;;;;;;;2.33;1.33;;;;;;;11.58;55.55;101317.00;7972367;28;20429;-64
2021/10/25 15:38:32;;;;;;;2.75;1.35;;;;;;;11.55;55.83;101308.44;7974749;28;20169;-64
2021/10/25 15:42:24;;;;;;;1.52;1.00;;;;;;;11.49;55.65;101312.28;7973780;28;20479;-64
2021/10/25 15:46:15;;;;;;;1.13;1.00;;;;;;;11.44;55.66;101306.47;7973287;28;20033;-65
2021/10/25 15:50:07;;;;;;;1.88;1.25;;;;;;;11.41;55.81;101311.06;7972460;28;20783;-65
2021/10/25 15:53:58;;;;;;;1.20;1.00;;;;;;;11.36;55.91;101310.50;7972543;28;20096;-63
2021/10/25 15:57:50;;;;;;;1.52;0.93;;;;;;;11.33;55.86;101303.66;7972288;28;20033;-65
2021/10/25 16:01:41;;;;;;;3.20;1.10;;;;;;;11.22;55.88;101298.25;7969035;28;20144;-64
2021/10/25 16:05:32;;;;;;;1.77;1.20;;;;;;;11.24;56.07;101316.53;7973008;28;20065;-66
2021/10/25 16:09:22;;;;;;;1.95;1.17;;;;;;;11.23;56.10;101318.34;7971364;28;20053;-66
2021/10/25 16:13:13;;;;;;;1.23;1.10;;;;;;;11.20;56.17;101317.66;7965492;28;20044;-66
2021/10/25 16:17:09;;;;;;;2.80;1.38;;;;;;;11.19;56.27;101321.25;7967290;28;20508;-66
2021/10/25 16:20:59;;;;;;;2.28;1.10;;;;;;;11.17;56.16;101326.59;7971300;28;20105;-66
2021/10/25 16:24:50;;;;;;;1.58;1.00;;;;;;;11.15;56.35;101329.31;7970433;28;20021;-66
2021/10/25 16:28:41;;;;;;;2.65;1.00;;;;;;;11.15;56.41;101328.47;7973362;28;20040;-65
2021/10/25 16:32:32;;;;;;;3.72;1.13;;;;;;;11.12;56.47;101339.16;7970196;28;20132;-66
2021/10/25 16:36:23;;;;;;;2.67;1.27;;;;;;;11.11;56.43;101335.69;7972395;28;20033;-67
2021/10/25 16:40:14;;;;;;;2.85;1.60;;;;;;;11.09;56.41;101327.06;7970196;28;20050;-65
2021/10/25 16:44:05;;;;;;;4.25;1.17;;;;;;;11.08;56.35;101333.25;7971505;28;20035;-66
2021/10/25 16:47:57;;;;;;;1.50;1.00;;;;;;;11.08;56.49;101345.56;7971809;28;20033;-65
2021/10/25 16:55:53;;;;;;;1.63;1.17;;;;;;;11.04;56.61;101338.78;7970482;28;20040;-65
2021/10/25 17:12:10;;;;;;;2.08;1.13;;;;;;;11.01;56.89;101339.00;7969507;28;20022;-65
2021/10/25 17:16:01;;;;;;;2.10;1.27;;;;;;;11.03;56.90;101350.25;7973394;28;20044;-65
2021/10/25 17:19:51;;;;;;;1.17;1.08;;;;;;;11.00;56.87;101346.03;7972345;28;20025;-70
2021/10/25 17:23:43;;;;;;;2.80;1.13;;;;;;;11.03;56.92;101355.50;7969897;28;20022;-69
2021/10/25 17:27:34;;;;;;;2.63;1.27;;;;;;;10.96;56.92;101346.31;7970137;28;20044;-65
2021/10/25 17:31:24;;;;;;;1.52;1.20;;;;;;;11.01;56.83;101355.63;7968215;28;20029;-67
2021/10/25 17:35:15;;;;;;;1.60;1.10;;;;;;;10.99;57.04;101362.72;7953849;28;20037;-66
2021/10/25 17:39:07;;;;;;;2.50;1.25;;;;;;;10.99;56.88;101368.00;7970081;28;20039;-68
2021/10/25 17:43:05;;;;;;;2.47;1.23;;;;;;;10.96;56.98;101357.66;7968300;28;20057;-64
2021/10/25 17:46:56;;;;;;;;;;;;;;;10.88;56.78;101356.44;7972329;28;20037;-68
2021/10/25 17:50:49;;;;;;;4.35;2.10;;;;;;;10.93;56.97;101362.25;7969430;28;19913;-64
2021/10/25 17:54:40;;;;;;;1.80;1.50;;;;;;;10.94;57.08;101367.41;7967876;28;20557;-66
2021/10/25 17:58:31;;;;;;;3.17;1.83;;;;;;;10.94;56.95;101374.47;7968801;28;20508;-66
2021/10/25 18:02:22;;;;;;;3.03;1.90;;;;;;;10.92;57.07;101374.56;7970788;28;20512;-68
2021/10/25 18:06:13;;;;;;;2.85;1.85;;;;;;;10.92;57.14;101371.94;7962535;28;20036;-68
2021/10/25 18:10:04;;;;;;;3.63;1.60;;;;;;;10.92;57.09;101376.34;7952746;28;20052;-67
2021/10/25 18:13:55;;;;;;;2.33;1.20;;;;;;;10.87;57.10;101370.50;7969414;28;20034;-69
2021/10/25 18:17:46;;;;;;;4.68;1.40;;;;;;;10.88;56.92;101373.06;7967623;28;20079;-68
2021/10/25 18:21:38;;;;;;;1.42;1.00;;;;;;;10.88;57.04;101378.31;7971128;28;20042;-68
2021/10/25 18:25:29;;;;;;;3.67;1.17;;;;;;;10.87;57.29;101379.22;7969956;28;20079;-68
2021/10/25 18:29:19;;;;;;;1.23;1.10;;;;;;;10.86;57.49;101382.78;7970680;28;20087;-68
2021/10/25 18:33:10;;;;;;;1.70;1.30;;;;;;;10.85;57.31;101385.53;7970182;28;20529;-68
2021/10/25 18:37:01;;;;;;;1.63;1.38;;;;;;;10.83;57.24;101380.34;7970134;28;20041;-68
2021/10/25 18:40:51;;;;;;;0.90;0.75;;;;;;;10.83;57.48;101379.50;7965661;28;20029;-68
2021/10/25 18:44:42;;;;;;;2.08;1.00;;;;;;;10.82;57.37;101378.66;7950379;28;20036;-67
2021/10/25 18:48:33;;;;;;;2.42;1.23;;;;;;;10.78;57.29;101361.38;7965324;28;20033;-66
2021/10/25 18:52:24;;;;;;;2.10;1.13;;;;;;;10.83;57.46;101369.00;7965304;28;20098;-68
2021/10/25 18:56:14;;;;;;;1.27;1.02;;;;;;;10.77;57.55;101356.22;7968218;28;20042;-68
2021/10/25 19:00:09;;;;;;;1.75;1.25;;;;;;;10.81;57.37;101360.38;7968153;28;20554;-67
2021/10/25 19:04:00;;;;;;;1.88;1.02;;;;;;;10.83;57.34;101361.09;7967818;28;20056;-67
2021/10/25 19:07:52;;;;;;;2.58;1.20;;;;;;;10.84;57.41;101354.91;7969462;28;20029;-68
2021/10/25 19:11:42;;;;;;;2.55;1.30;;;;;;;10.81;57.33;101363.84;7966736;28;20041;-67
2021/10/25 19:15:33;;;;;;;1.02;0.90;;;;;;;10.82;57.49;101375.22;7969843;28;20444;-67
2021/10/25 19:19:23;;;;;;;1.55;1.15;;;;;;;10.79;57.76;101372.72;7968131;28;20038;-68
2021/10/25 19:23:15;;;;;;;3.83;1.45;;;;;;;10.76;57.38;101368.53;7966780;28;20022;-67
2021/10/25 19:27:07;;;;;;;3.80;1.45;;;;;;;10.69;57.37;101362.75;7968131;28;20140;-67
2021/10/25 19:31:00;;;;;;;1.77;1.08;;;;;;;10.68;57.26;101376.84;7968129;28;20593;-68
2021/10/25 19:34:52;;;;;;;1.08;0.98;;;;;;;10.65;57.24;101378.81;7967360;28;20030;-68
2021/10/25 19:38:46;;;;;;;2.58;1.23;;;;;;;10.62;57.48;101376.34;7967648;28;20034;-68
2021/10/25 19:42:37;;;;;;;2.92;1.50;;;;;;;10.58;57.37;101375.69;7966484;28;20037;-68
2021/10/25 19:46:29;;;;;;;1.67;1.15;;;;;;;10.56;57.34;101366.22;7968391;28;20069;-69
2021/10/25 19:50:20;;;;;;;3.67;1.23;;;;;;;10.49;57.31;101359.56;7972133;28;20596;-67
2021/10/25 19:54:11;;;;;;;5.00;1.30;;;;;;;10.52;57.53;101372.59;7973850;28;20033;-69
2021/10/25 19:58:01;;;;;;;4.28;1.30;;;;;;;10.51;57.33;101376.13;7974341;28;20113;-68
2021/10/25 20:01:52;;;;;;;2.70;1.13;;;;;;;10.49;57.53;101378.81;7974436;28;20027;-68
2021/10/25 20:05:42;;;;;;;2.83;1.13;;;;;;;10.50;57.64;101377.06;7975405;28;20033;-67
2021/10/25 20:09:35;;;;;;;1.45;1.10;;;;;;;10.50;57.54;101390.19;7973423;28;20094;-68
2021/10/25 20:13:26;;;;;;;1.90;1.02;;;;;;;10.50;57.64;101393.69;7969930;28;20039;-68
2021/10/25 20:17:17;;;;;;;2.35;1.00;;;;;;;10.51;57.87;101387.50;7970792;28;20137;-68